createdAt,value
2018-04-27T00:00:10.874Z,87.77
2018-04-27T00:02:38.800Z,87.81
2018-04-27T00:05:06.524Z,88.53
2018-04-27T00:07:34.073Z,89.13
2018-04-27T00:10:01.834Z,88.60
2018-04-27T00:12:29.490Z,88.93
2018-04-27T00:14:57.040Z,89.88
2018-04-27T00:17:24.921Z,89.62
2018-04-27T00:19:53.044Z,89.80
2018-04-27T00:22:20.580Z,89.48
2018-04-27T00:24:48.210Z,89.54
2018-04-27T00:27:15.875Z,89.47
2018-04-27T00:29:43.408Z,89.43
2018-04-27T00:32:10.960Z,89.06
2018-04-27T00:34:38.559Z,88.92
2018-04-27T00:37:06.365Z,89.17
2018-04-27T00:39:34.208Z,89.13
2018-04-27T00:42:01.928Z,90.16
2018-04-27T00:44:29.605Z,90.33
2018-04-27T00:46:57.208Z,90.33
2018-04-27T00:49:24.965Z,90.16
2018-04-27T00:51:52.590Z,90.51
2018-04-27T00:54:20.144Z,90.59
2018-04-27T00:56:47.804Z,90.59
2018-04-27T00:59:15.433Z,90.24
2018-04-27T01:01:43.004Z,90.27
2018-04-27T01:04:10.771Z,89.98
2018-04-27T01:06:38.316Z,89.64
2018-04-27T01:09:05.940Z,90.16
2018-04-27T01:11:33.598Z,90.28
2018-04-27T01:14:01.154Z,89.82
2018-04-27T01:16:28.968Z,89.34
2018-04-27T01:18:56.690Z,88.95
2018-04-27T01:21:24.575Z,89.27
2018-04-27T01:23:52.121Z,89.14
2018-04-27T01:26:19.706Z,89.25
2018-04-27T01:28:47.520Z,88.96
2018-04-27T01:31:15.164Z,89.28
2018-04-27T01:33:43.109Z,89.55
2018-04-27T01:36:10.693Z,89.42
2018-04-27T01:38:38.450Z,89.90
2018-04-27T01:41:06.568Z,90.46
2018-04-27T01:43:34.115Z,90.02
2018-04-27T01:46:01.680Z,88.91
2018-04-27T01:48:29.287Z,88.66
2018-04-27T01:50:56.890Z,88.63
2018-04-27T01:53:24.795Z,88.33
2018-04-27T01:55:52.467Z,87.93
2018-04-27T01:58:20.137Z,87.74
2018-04-27T02:00:47.245Z,88.06
2018-04-27T02:03:14.691Z,88.42
2018-04-27T02:05:42.368Z,88.87
2018-04-27T02:08:09.452Z,89.33
2018-04-27T02:10:36.955Z,88.92
2018-04-27T02:13:04.215Z,89.02
2018-04-27T02:15:31.820Z,89.21
2018-04-27T02:17:59.622Z,89.86
2018-04-27T02:20:27.121Z,90.11
2018-04-27T02:22:54.711Z,90.41
2018-04-27T02:25:22.557Z,90.34
2018-04-27T02:27:50.171Z,89.81
2018-04-27T02:30:17.860Z,89.88
2018-04-27T02:32:44.968Z,90.25
2018-04-27T02:35:12.027Z,90.82
2018-04-27T02:37:39.557Z,90.89
2018-04-27T02:40:06.644Z,91.15
2018-04-27T02:42:34.398Z,90.90
2018-04-27T02:45:02.009Z,90.45
2018-04-27T02:47:29.245Z,90.47
2018-04-27T02:49:56.431Z,91.79
2018-04-27T02:52:24.071Z,92.04
2018-04-27T02:54:51.158Z,92.15
2018-04-27T02:57:19.398Z,91.96
2018-04-27T02:59:47.075Z,92.19
2018-04-27T03:02:14.692Z,92.77
2018-04-27T03:04:42.226Z,92.46
2018-04-27T03:07:09.899Z,92.55
2018-04-27T03:09:37.537Z,92.62
2018-04-27T03:12:05.115Z,92.78
2018-04-27T03:14:32.690Z,93.26
2018-04-27T03:17:00.203Z,93.04
2018-04-27T03:19:27.776Z,92.88
2018-04-27T03:21:55.365Z,92.94
2018-04-27T03:24:22.960Z,92.65
2018-04-27T03:26:50.720Z,92.47
2018-04-27T03:29:18.309Z,92.55
2018-04-27T03:31:45.835Z,92.58
2018-04-27T03:34:13.412Z,92.51
2018-04-27T03:36:41.141Z,92.88
2018-04-27T03:39:08.661Z,93.40
2018-04-27T03:41:36.327Z,93.85
2018-04-27T03:44:04.967Z,93.74
2018-04-27T03:46:32.731Z,93.82
2018-04-27T03:49:00.350Z,93.74
2018-04-27T03:51:27.888Z,93.72
2018-04-27T03:53:55.530Z,93.41
2018-04-27T03:56:23.150Z,93.12
2018-04-27T03:58:50.675Z,92.93
2018-04-27T04:01:30.273Z,92.85
2018-04-27T04:04:09.721Z,92.86
2018-04-27T04:06:37.367Z,92.60
2018-04-27T04:09:05.325Z,92.38
2018-04-27T04:11:32.965Z,92.36
2018-04-27T04:14:01.646Z,92.25
2018-04-27T04:16:29.321Z,92.44
2018-04-27T04:18:57.086Z,92.71
2018-04-27T04:21:24.857Z,92.68
2018-04-27T04:23:52.543Z,92.80
2018-04-27T04:26:20.266Z,92.60
2018-04-27T04:28:47.897Z,92.59
2018-04-27T04:31:15.437Z,92.54
2018-04-27T04:33:42.954Z,92.07
2018-04-27T04:36:10.657Z,92.16
2018-04-27T04:38:38.230Z,91.80
2018-04-27T04:41:05.756Z,91.43
2018-04-27T04:43:33.298Z,90.77
2018-04-27T04:46:01.645Z,90.29
2018-04-27T04:48:29.262Z,89.28
2018-04-27T04:50:56.957Z,87.87
2018-04-27T04:53:24.518Z,86.42
2018-04-27T04:55:52.211Z,86.17
2018-04-27T04:58:19.829Z,85.87
2018-04-27T05:00:47.776Z,86.57
2018-04-27T05:03:15.332Z,86.75
2018-04-27T05:05:43.376Z,86.46
2018-04-27T05:08:11.238Z,86.53
2018-04-27T05:10:38.879Z,85.12
2018-04-27T05:13:06.611Z,82.70
2018-04-27T05:15:34.166Z,80.62
2018-04-27T05:18:01.775Z,79.15
2018-04-27T05:20:28.971Z,80.46
2018-04-27T05:22:56.698Z,80.86
2018-04-27T05:25:24.705Z,80.46
2018-04-27T05:27:52.486Z,80.39
2018-04-27T05:30:30.074Z,80.63
2018-04-27T05:33:04.569Z,79.53
2018-04-27T05:35:32.420Z,76.82
2018-04-27T05:38:00.082Z,75.16
2018-04-27T05:40:27.684Z,76.57
2018-04-27T05:42:55.315Z,76.94
2018-04-27T05:45:24.311Z,77.22
2018-04-27T05:47:51.943Z,77.27
2018-04-27T05:50:19.821Z,76.77
2018-04-27T05:52:47.536Z,77.20
2018-04-27T05:55:15.437Z,76.09
2018-04-27T05:57:43.352Z,72.26
2018-04-27T06:00:11.067Z,68.15
2018-04-27T06:02:38.588Z,67.19
2018-04-27T06:05:06.246Z,64.92
2018-04-27T06:07:33.905Z,59.52
2018-04-27T06:10:02.027Z,58.77
2018-04-27T06:12:29.572Z,59.55
2018-04-27T06:14:57.183Z,54.21
2018-04-27T06:17:24.893Z,51.70
2018-04-27T06:19:52.437Z,50.39
2018-04-27T06:22:20.268Z,46.63
2018-04-27T06:24:47.822Z,45.90
2018-04-27T06:27:15.521Z,44.69
2018-04-27T06:29:43.119Z,44.20
2018-04-27T06:32:10.785Z,42.93
2018-04-27T06:34:38.417Z,41.74
2018-04-27T06:37:06.076Z,40.39
2018-04-27T06:39:33.718Z,37.44
2018-04-27T06:42:01.416Z,36.63
2018-04-27T06:44:29.010Z,37.61
2018-04-27T06:46:56.555Z,38.34
2018-04-27T06:49:24.536Z,37.29
2018-04-27T06:51:52.165Z,32.87
2018-04-27T06:54:19.790Z,34.33
2018-04-27T06:56:47.361Z,33.13
2018-04-27T06:59:14.996Z,35.24
2018-04-27T07:01:42.763Z,33.93
2018-04-27T07:04:10.702Z,32.15
2018-04-27T07:06:38.287Z,30.52
2018-04-27T07:09:06.463Z,31.31
2018-04-27T07:11:34.145Z,31.29
2018-04-27T07:14:02.611Z,31.03
2018-04-27T07:16:30.892Z,30.63
2018-04-27T07:18:58.427Z,29.61
2018-04-27T07:21:26.244Z,28.74
2018-04-27T07:23:53.778Z,30.39
2018-04-27T07:26:21.281Z,30.12
2018-04-27T07:28:49.008Z,28.26
2018-04-27T07:31:16.601Z,26.59
2018-04-27T07:33:44.481Z,26.20
2018-04-27T07:36:12.288Z,24.88
2018-04-27T07:38:40.096Z,26.14
2018-04-27T07:41:07.617Z,25.15
2018-04-27T07:43:35.242Z,24.54
2018-04-27T07:46:03.191Z,24.01
2018-04-27T07:48:31.296Z,21.73
2018-04-27T07:50:59.267Z,22.33
2018-04-27T07:53:26.987Z,23.64
2018-04-27T07:55:54.606Z,22.72
2018-04-27T07:58:22.370Z,23.03
2018-04-27T08:00:50.004Z,22.75
2018-04-27T08:03:17.622Z,22.58
2018-04-27T08:05:45.282Z,22.08
2018-04-27T08:08:12.823Z,22.07
2018-04-27T08:10:40.639Z,21.66
2018-04-27T08:13:08.191Z,20.69
2018-04-27T08:15:36.311Z,20.08
2018-04-27T08:18:03.851Z,20.02
2018-04-27T08:20:31.437Z,19.68
2018-04-27T08:22:59.772Z,20.46
2018-04-27T08:25:31.246Z,19.69
2018-04-27T08:27:59.381Z,19.31
2018-04-27T08:30:27.003Z,20.37
2018-04-27T08:32:54.588Z,18.36
2018-04-27T08:35:22.136Z,18.53
2018-04-27T08:37:49.741Z,18.68
2018-04-27T08:40:17.286Z,17.69
2018-04-27T08:42:44.967Z,18.20
2018-04-27T08:45:12.500Z,17.04
2018-04-27T08:47:40.247Z,17.77
2018-04-27T08:50:07.833Z,16.63
2018-04-27T08:52:35.479Z,15.73
2018-04-27T08:55:03.180Z,16.28
2018-04-27T08:57:30.759Z,17.33
2018-04-27T08:59:58.424Z,18.08
2018-04-27T09:02:26.128Z,17.69
2018-04-27T09:04:53.667Z,15.63
2018-04-27T09:07:21.513Z,15.52
2018-04-27T09:09:49.054Z,16.00
2018-04-27T09:12:16.594Z,15.21
2018-04-27T09:14:44.142Z,14.96
2018-04-27T09:17:11.681Z,15.62
2018-04-27T09:19:40.084Z,15.92
2018-04-27T09:22:07.786Z,15.60
2018-04-27T09:24:35.348Z,16.14
2018-04-27T09:27:02.894Z,15.28
2018-04-27T09:29:30.474Z,15.57
2018-04-27T09:31:58.119Z,15.60
2018-04-27T09:34:25.854Z,14.97
2018-04-27T09:36:53.704Z,15.23
2018-04-27T09:39:21.361Z,14.02
2018-04-27T09:41:48.906Z,14.46
2018-04-27T09:44:16.852Z,16.53
2018-04-27T09:46:44.635Z,15.13
2018-04-27T09:49:12.316Z,16.49
2018-04-27T09:51:39.886Z,14.81
2018-04-27T09:54:07.430Z,14.46
2018-04-27T09:56:35.134Z,14.93
2018-04-27T09:59:02.689Z,16.00
2018-04-27T10:01:30.281Z,13.75
2018-04-27T10:03:57.978Z,14.27
2018-04-27T10:06:25.794Z,14.20
2018-04-27T10:08:53.622Z,14.02
2018-04-27T10:11:21.302Z,13.64
2018-04-27T10:13:48.910Z,13.79
2018-04-27T10:16:16.550Z,13.63
2018-04-27T10:18:44.314Z,13.18
2018-04-27T10:21:12.115Z,13.93
2018-04-27T10:23:39.900Z,12.68
2018-04-27T10:26:07.523Z,13.52
2018-04-27T10:28:35.214Z,13.43
2018-04-27T10:31:02.884Z,13.82
2018-04-27T10:33:30.400Z,13.31
2018-04-27T10:35:59.014Z,13.41
2018-04-27T10:38:26.564Z,12.66
2018-04-27T10:40:54.372Z,13.86
2018-04-27T10:43:21.973Z,14.12
2018-04-27T10:45:49.666Z,15.53
2018-04-27T10:48:17.262Z,14.24
2018-04-27T10:50:44.852Z,12.88
2018-04-27T10:53:12.438Z,13.01
2018-04-27T10:55:41.242Z,12.80
2018-04-27T10:58:09.388Z,12.98
2018-04-27T11:00:36.920Z,13.77
2018-04-27T11:03:04.548Z,14.02
2018-04-27T11:05:33.005Z,13.89
2018-04-27T11:08:00.676Z,13.10
2018-04-27T11:10:28.444Z,12.86
2018-04-27T11:12:56.210Z,13.93
2018-04-27T11:15:23.791Z,14.32
2018-04-27T11:17:51.479Z,13.56
2018-04-27T11:20:19.108Z,13.99
2018-04-27T11:22:46.826Z,12.99
2018-04-27T11:25:14.421Z,12.59
2018-04-27T11:27:42.017Z,12.85
2018-04-27T11:30:09.836Z,12.93
2018-04-27T11:32:37.375Z,13.57
2018-04-27T11:35:05.153Z,14.01
2018-04-27T11:37:32.736Z,14.22
2018-04-27T11:40:00.372Z,13.99
2018-04-27T11:42:27.944Z,14.00
2018-04-27T11:44:55.525Z,13.85
2018-04-27T11:47:23.057Z,12.64
2018-04-27T11:49:50.667Z,12.83
2018-04-27T11:52:18.270Z,12.60
2018-04-27T11:54:46.267Z,12.02
2018-04-27T11:57:13.867Z,13.77
2018-04-27T11:59:41.552Z,13.39
2018-04-27T12:02:09.939Z,12.52
2018-04-27T12:04:37.640Z,12.63
2018-04-27T12:07:05.337Z,12.64
2018-04-27T12:09:33.000Z,12.79
2018-04-27T12:12:00.561Z,12.79
2018-04-27T12:14:28.355Z,12.50
2018-04-27T12:16:56.824Z,12.81
2018-04-27T12:19:24.456Z,11.45
2018-04-27T12:21:51.985Z,11.38
2018-04-27T12:24:19.652Z,12.30
2018-04-27T12:26:48.483Z,13.07
2018-04-27T12:29:16.069Z,11.88
2018-04-27T12:31:43.864Z,14.20
2018-04-27T12:34:11.413Z,13.57
2018-04-27T12:36:38.976Z,14.79
2018-04-27T12:39:06.560Z,13.57
2018-04-27T12:41:34.242Z,13.22
2018-04-27T12:44:02.024Z,13.78
2018-04-27T12:46:30.103Z,13.51
2018-04-27T12:48:57.753Z,12.70
2018-04-27T12:51:25.385Z,13.78
2018-04-27T12:53:52.961Z,13.00
2018-04-27T12:56:20.562Z,14.42
2018-04-27T12:58:48.175Z,14.00
2018-04-27T13:01:15.955Z,12.79
2018-04-27T13:03:43.592Z,12.97
2018-04-27T13:06:11.183Z,12.85
2018-04-27T13:08:39.081Z,12.56
2018-04-27T13:11:06.690Z,13.20
2018-04-27T13:13:34.362Z,12.46
2018-04-27T13:16:02.090Z,13.64
2018-04-27T13:18:29.776Z,13.62
2018-04-27T13:20:57.649Z,14.46
2018-04-27T13:23:25.294Z,14.57
2018-04-27T13:25:52.822Z,14.05
2018-04-27T13:28:23.241Z,15.33
2018-04-27T13:30:50.895Z,15.22
2018-04-27T13:33:18.712Z,14.31
2018-04-27T13:35:46.276Z,14.54
2018-04-27T13:38:13.972Z,15.43
2018-04-27T13:40:41.698Z,15.90
2018-04-27T13:43:09.347Z,16.49
2018-04-27T13:45:37.010Z,15.01
2018-04-27T13:48:04.485Z,15.09
2018-04-27T13:50:32.389Z,17.28
2018-04-27T13:53:00.262Z,17.45
2018-04-27T13:55:27.782Z,17.18
2018-04-27T13:57:55.515Z,16.41
2018-04-27T14:00:23.118Z,17.19
2018-04-27T14:02:50.908Z,17.50
2018-04-27T14:05:18.575Z,16.86
2018-04-27T14:07:46.109Z,17.18
2018-04-27T14:10:13.841Z,20.04
2018-04-27T14:12:41.673Z,20.56
2018-04-27T14:15:09.281Z,20.99
2018-04-27T14:17:36.818Z,22.84
2018-04-27T14:20:04.592Z,23.66
2018-04-27T14:22:32.056Z,24.31
2018-04-27T14:25:00.009Z,24.78
2018-04-27T14:27:27.607Z,24.25
2018-04-27T14:29:55.262Z,24.71
2018-04-27T14:32:23.058Z,25.48
2018-04-27T14:34:50.596Z,25.78
2018-04-27T14:37:18.132Z,25.74
2018-04-27T14:39:45.768Z,26.56
2018-04-27T14:42:13.447Z,26.16
2018-04-27T14:44:41.013Z,26.10
2018-04-27T14:47:08.571Z,27.21
2018-04-27T14:49:36.297Z,27.34
2018-04-27T14:52:04.041Z,27.56
2018-04-27T14:54:31.625Z,28.47
2018-04-27T14:56:59.256Z,27.95
2018-04-27T14:59:27.122Z,28.52
2018-04-27T15:01:54.790Z,28.54
2018-04-27T15:04:22.413Z,28.31
2018-04-27T15:06:49.993Z,28.38
2018-04-27T15:09:17.513Z,28.73
2018-04-27T15:11:45.170Z,28.68
2018-04-27T15:14:12.736Z,28.14
2018-04-27T15:16:40.426Z,27.70
2018-04-27T15:19:08.006Z,29.79
2018-04-27T15:21:35.702Z,29.45
2018-04-27T15:24:03.579Z,28.67
2018-04-27T15:26:31.137Z,29.38
2018-04-27T15:28:58.686Z,29.21
2018-04-27T15:31:26.385Z,31.28
2018-04-27T15:33:54.067Z,29.61
2018-04-27T15:36:21.785Z,29.54
2018-04-27T15:38:49.338Z,29.52
2018-04-27T15:41:17.187Z,30.35
2018-04-27T15:43:44.748Z,30.15
2018-04-27T15:46:12.476Z,29.69
2018-04-27T15:48:40.081Z,29.71
2018-04-27T15:51:07.615Z,32.35
2018-04-27T15:53:35.296Z,30.03
2018-04-27T15:56:03.410Z,30.59
2018-04-27T15:58:31.116Z,31.88
2018-04-27T16:00:58.665Z,31.33
2018-04-27T16:03:26.221Z,30.77
2018-04-27T16:05:53.892Z,30.89
2018-04-27T16:08:21.419Z,32.56
2018-04-27T16:10:49.246Z,32.15
2018-04-27T16:13:18.622Z,31.58
2018-04-27T16:15:46.922Z,32.36
2018-04-27T16:18:14.472Z,31.11
2018-04-27T16:20:42.185Z,31.05
2018-04-27T16:23:09.807Z,31.81
2018-04-27T16:25:37.373Z,32.03
2018-04-27T16:28:04.943Z,31.39
2018-04-27T16:30:32.759Z,33.10
2018-04-27T16:33:00.355Z,33.24
